• Join FlightAware (Why Join?)
  • Login
  • US Flag 
07:05PM EDT


 

Airport Tracker/Info


-or-


 

Live Flight TrackerFlight Track Log ✈ AAL963 ✈ 25-Jun-2013 ✈ KDFW - SBGR / GRU

Flight Track Log - Related Links

Times and Time Zones

All times are in EDT time to prevent confusion due to time zone crossing. See the AAL963 flight status page for this flight to view local times or setup timezone preferences in your user account.

Time Position Orientation Groundspeed Altitude Reporting Facility
EDT Latitude Longitude Course Direction KTS MPH feet Rate Location/Type
09:12PM 32.8610 -97.0300 182° South 164 189 2,300  Level FlightAware
09:13PM 32.8390 -97.0260 171° South 195 224 2,600 840 Climbing FlightAware
09:13PM 32.8130 -97.0160 162° South 222 255 3,100 1,260 Climbing FlightAware
09:14PM 32.7810 -97.0060 165° South 245 282 3,900 2,100 Climbing FlightAware
09:14PM 32.7620 -97.0000 165° South 239 275 4,700 2,400 Climbing FlightAware
09:15PM 32.7360 -96.9890 160° South 252 290 5,500 1,920 Climbing FlightAware
09:15PM 32.7200 -96.9820 160° South 255 293 6,000 1,920 Climbing FlightAware
09:15PM 32.6910 -96.9710 162° South 264 304 6,800 1,680 Climbing FlightAware
09:16PM 32.6700 -96.9640 164° South 274 315 7,300 1,680 Climbing FlightAware
09:16PM 32.6360 -96.9510 162° South 287 330 8,100 1,980 Climbing FlightAware
09:16PM 32.6020 -96.9380 162° South 293 337 9,000 1,680 Climbing FlightAware
09:17PM 32.5600 -96.9210 161° South 311 358 9,700 1,440 Climbing FlightAware
09:18PM 32.5010 -96.8980 162° South 330 380 10,800 1,260 Climbing FlightAware
09:18PM 32.4370 -96.8740 162° South 362 417 11,500 1,020 Climbing FlightAware
09:19PM 32.3660 -96.8470 162° South 393 452 12,300 1,320 Climbing FlightAware
09:20PM 32.2870 -96.8160 162° South 410 472 13,500 1,800 Climbing FlightAware
09:20PM 32.2110 -96.7870 162° South 419 482 14,900 1,920 Climbing FlightAware
09:21PM 32.1410 -96.7610 163° South 426 490 16,100 1,860 Climbing FlightAware
09:21PM 32.1026 -96.7462 162° South 431 496 16,700 1,800 Climbing FlightAware ADS-B
09:22PM 32.0257 -96.7169 162° South 435 501 17,900 1,800 Climbing FlightAware ADS-B
09:23PM 31.9482 -96.6875 162° South 445 512 19,100 1,800 Climbing FlightAware ADS-B
09:23PM 31.8880 -96.6647 162° South 448 516 20,000 1,680 Climbing FlightAware ADS-B
09:24PM 31.8494 -96.6497 162° South 454 522 20,500 1,620 Climbing FlightAware ADS-B
09:24PM 31.7865 -96.6236 161° South 460 529 21,400 1,500 Climbing FlightAware ADS-B
09:25PM 31.7226 -96.5971 161° South 468 539 22,100 1,440 Climbing FlightAware ADS-B
09:25PM 31.6454 -96.5654 161° South 474 545 23,100 1,440 Climbing FlightAware ADS-B
09:26PM 31.5784 -96.5381 161° South 483 556 23,800 1,200 Climbing FlightAware ADS-B
09:26PM 31.5147 -96.5122 161° South 488 562 24,400 1,260 Climbing FlightAware ADS-B
09:27PM 31.4485 -96.4869 162° South 494 568 25,100 1,200 Climbing FlightAware ADS-B
09:28PM 31.2478 -96.4129 162° South 510 587 26,900 1,200 Climbing FlightAware ADS-B
09:29PM 31.1717 -96.3715 148° Southeast 511 588 27,700 1,260 Climbing FlightAware ADS-B
09:29PM 31.1428 -96.3422 139° Southeast 511 588 28,000 960 Climbing FlightAware ADS-B
09:30PM 31.0404 -96.1798 126° Southeast 521 600 29,200 960 Climbing FlightAware ADS-B
09:31PM 30.9977 -96.1100 126° Southeast 524 603 29,700 1,140 Climbing FlightAware ADS-B
09:31PM 30.9542 -96.0393 126° Southeast 524 603 30,400 1,380 Climbing FlightAware ADS-B
09:32PM 30.9097 -95.9672 126° Southeast 520 598 31,200 1,260 Climbing FlightAware ADS-B
09:33PM 30.7819 -95.7611 126° Southeast 518 596 33,000 1,140 Climbing FlightAware ADS-B
09:34PM 30.7393 -95.6928 126° Southeast 516 594 33,600 1,260 Climbing FlightAware ADS-B
09:35PM 30.6559 -95.5591 126° Southeast 508 585 34,900 900 Climbing FlightAware ADS-B
09:35PM 30.6129 -95.4905 126° Southeast 506 582 35,000 60 Climbing FlightAware ADS-B
09:36PM 30.5716 -95.4246 126° Southeast 506 582 35,000  Level FlightAware ADS-B
09:36PM 30.5301 -95.3585 126° Southeast 507 583 35,000  Level FlightAware ADS-B
09:38PM 30.4041 -95.1583 126° Southeast 507 583 35,000  Level FlightAware ADS-B
09:41PM 30.1504 -94.7585 126° Southeast 507 583 35,000  Level FlightAware ADS-B
09:42PM 30.1087 -94.6932 126° Southeast 507 583 35,000  Level FlightAware ADS-B
09:42PM 30.0664 -94.6270 126° Southeast 508 585 35,000  Level FlightAware ADS-B
09:43PM 29.9807 -94.4932 127° Southeast 508 585 35,000  Level FlightAware ADS-B
09:44PM 29.9371 -94.4253 127° Southeast 509 586 35,000  Level FlightAware ADS-B
09:46PM 29.7647 -94.1583 127° Southeast 513 590 35,000  Level FlightAware ADS-B
09:46PM 29.7208 -94.0906 127° Southeast 513 590 35,000  Level FlightAware ADS-B
09:46PM 29.6960 -94.0568 130° Southeast 516 594 35,000  Level FlightAware ADS-B
09:47PM 29.6664 -94.0232 135° Southeast 518 596 35,000  Level FlightAware ADS-B
09:47PM 29.6083 -93.9707 142° Southeast 519 597 35,000  Level FlightAware ADS-B
09:48PM 29.5460 -93.9173 143° Southeast 518 596 35,000  Level FlightAware ADS-B
09:48PM 29.4774 -93.8588 143° Southeast 517 595 35,000  Level FlightAware ADS-B
09:49PM 29.3996 -93.7927 143° Southeast 518 596 35,000  Level FlightAware ADS-B
09:50PM 29.3372 -93.7395 143° Southeast 519 597 35,000  Level FlightAware ADS-B
09:50PM 29.2782 -93.6895 144° Southeast 518 596 35,000  Level FlightAware ADS-B
09:51PM 29.2176 -93.6380 143° Southeast 517 595 35,000  Level FlightAware ADS-B
09:51PM 29.1589 -93.5883 144° Southeast 517 595 35,000  Level FlightAware ADS-B
09:52PM 29.0994 -93.5380 144° Southeast 518 596 35,000  Level FlightAware ADS-B
09:52PM 29.0363 -93.4847 144° Southeast 517 595 35,000  Level FlightAware ADS-B
09:53PM 28.9778 -93.4354 144° Southeast 516 594 35,000  Level FlightAware ADS-B
09:53PM 28.9196 -93.3864 144° Southeast 516 594 35,000  Level FlightAware ADS-B
09:54PM 28.8588 -93.3352 144° Southeast 515 593 35,000 -60 Level FlightAware ADS-B
09:55PM 28.7011 -93.2017 144° Southeast 514 592 34,900  Descending Houston Center
09:56PM 28.5858 -93.1053 144° Southeast 514 592 35,000  Climbing Houston Center
09:57PM 28.4708 -93.0100 144° Southeast 513 590 34,900 -60 Descending Houston Center
09:58PM 28.3561 -92.9133 143° Southeast 514 592 34,900  Level Houston Center
09:59PM 28.2406 -92.8167 144° Southeast 515 593 34,900  Level Houston Center
10:00PM 28.1256 -92.7236 144° Southeast 510 587 35,000  Climbing Houston Center
10:01PM 28.0114 -92.6269 143° Southeast 512 589 34,900 -60 Descending Houston Center
10:02PM 27.8967 -92.5331 144° Southeast 510 587 34,900  Level Houston Center
10:03PM 27.7819 -92.4392 144° Southeast 509 586 35,000  Climbing Houston Center
10:04PM 27.6419 -92.3278 145° Southeast 514 592 34,900  Descending Houston Center
10:05PM 27.5289 -92.2353 144° Southeast 506 582 35,000  Climbing Houston Center
10:06PM 27.4153 -92.1439 144° Southeast 503 579 34,900 -60 Descending Houston Center
10:07PM 27.3019 -92.0522 144° Southeast 502 578 34,900  Level Houston Center
10:08PM 27.1889 -91.9606 144° Southeast 502 578 34,900  Level Houston Center
10:09PM 27.0758 -91.8700 144° Southeast 500 575 34,900  Level Houston Center
10:11PM 26.9649 -91.7798 144° Southeast  Level FlightAware Approximate
10:18PM 26.2236 -91.1836 145° Southeast  Level FlightAware Approximate
10:19PM 26.1170 -91.0998 145° Southeast  Level FlightAware Approximate
10:20PM 26.0104 -91.0161 145° Southeast  Level FlightAware Approximate
10:21PM 25.9038 -90.9325 145° Southeast  Level FlightAware Approximate
10:22PM 25.7971 -90.8492 145° Southeast  Level FlightAware Approximate
10:23PM 25.6903 -90.7659 145° Southeast  Level FlightAware Approximate
10:24PM 25.5835 -90.6828 145° Southeast  Level FlightAware Approximate
10:25PM 25.4767 -90.5999 145° Southeast  Level FlightAware Approximate
10:26PM 25.3698 -90.5171 145° Southeast  Level FlightAware Approximate
10:27PM 25.2629 -90.4344 145° Southeast  Level FlightAware Approximate
10:28PM 25.1559 -90.3519 145° Southeast  Level FlightAware Approximate
10:29PM 25.0489 -90.2696 145° Southeast  Level FlightAware Approximate
10:30PM 24.9418 -90.1874 145° Southeast  Level FlightAware Approximate
10:31PM 24.8347 -90.1053 145° Southeast  Level FlightAware Approximate
10:32PM 24.7275 -90.0234 145° Southeast  Level FlightAware Approximate
10:33PM 24.6203 -89.9416 145° Southeast  Level FlightAware Approximate
10:34PM 24.5131 -89.8599 145° Southeast  Level FlightAware Approximate
10:35PM 24.4162 -89.7642 137° Southeast  Level FlightAware Approximate
10:36PM 24.3210 -89.6663 137° Southeast  Level FlightAware Approximate
10:37PM 24.2258 -89.5685 137° Southeast  Level FlightAware Approximate
10:38PM 24.1305 -89.4709 137° Southeast  Level FlightAware Approximate
10:39PM 24.0351 -89.3734 137° Southeast  Level FlightAware Approximate
10:40PM 23.9396 -89.2761 137° Southeast  Level FlightAware Approximate
10:41PM 23.8441 -89.1789 137° Southeast  Level FlightAware Approximate
10:42PM 23.7486 -89.0818 137° Southeast  Level FlightAware Approximate
10:43PM 23.6530 -88.9849 137° Southeast  Level FlightAware Approximate
10:44PM 23.5573 -88.8882 137° Southeast  Level FlightAware Approximate
10:45PM 23.4615 -88.7916 137° Southeast  Level FlightAware Approximate
10:46PM 23.3657 -88.6951 137° Southeast  Level FlightAware Approximate
10:47PM 23.2699 -88.5987 137° Southeast  Level FlightAware Approximate
10:48PM 23.1740 -88.5025 137° Southeast  Level FlightAware Approximate
10:48PM 22.8110 -88.5850 137° Southeast 479 551 35,000  Level FlightAware
10:48PM 22.7240 -88.5230 147° Southeast 478 550 35,000  Level FlightAware
10:49PM 23.0780 -88.4065 137° Southeast  Level FlightAware Approximate
10:49PM 22.6500 -88.4680 146° Southeast 478 550 35,000  Level FlightAware
10:50PM 22.5720 -88.4010 142° Southeast 480 552 35,000  Level FlightAware
10:51PM 22.5190 -88.3060 121° Southeast 482 555 35,000  Level FlightAware
10:51PM 22.4890 -88.2260 112° Southeast 482 555 35,000  Level FlightAware
10:52PM 22.4490 -88.1190 112° Southeast 482 555 35,000  Level FlightAware
10:53PM 22.4020 -87.9920 112° Southeast 483 556 35,000  Level FlightAware
10:54PM 22.3690 -87.9020 112° Southeast 482 555 35,000  Level FlightAware
10:54PM 22.3290 -87.7960 112° Southeast 482 555 35,000  Level FlightAware
10:55PM 22.2940 -87.7200 116° Southeast 481 554 35,000  Level FlightAware
10:56PM 22.2400 -87.6250 122° Southeast 481 554 35,000  Level FlightAware
10:56PM 22.1930 -87.5400 121° Southeast 482 555 35,000  Level FlightAware
10:57PM 22.1360 -87.4670 130° Southeast 483 556 35,000  Level FlightAware
10:58PM 22.0660 -87.3950 136° Southeast 484 557 35,000  Level FlightAware
10:58PM 21.9940 -87.3380 144° Southeast 483 556 35,000  Level FlightAware
10:59PM 21.9100 -87.2910 153° Southeast 485 558 35,000  Level FlightAware
11:00PM 21.7800 -87.1940 145° Southeast 488 562 35,000  Level FlightAware
11:01PM 21.6670 -87.1130 146° Southeast 488 562 35,000  Level FlightAware
11:02PM 21.5850 -87.0530 146° Southeast 488 562 35,000  Level FlightAware
11:03PM 21.5070 -86.9930 144° Southeast 489 563 35,000  Level FlightAware
11:03PM 21.4290 -86.9350 145° Southeast 488 562 35,000  Level FlightAware
11:04PM 21.3510 -86.8770 145° Southeast 488 562 35,000  Level FlightAware
11:05PM 21.2800 -86.8230 145° Southeast 486 559 35,000  Level FlightAware
11:05PM 21.1990 -86.7630 145° Southeast 486 559 35,000  Level FlightAware
11:06PM 21.1180 -86.7030 145° Southeast 485 558 35,000  Level FlightAware
11:07PM 21.0440 -86.6480 145° Southeast 485 558 35,000  Level FlightAware
11:08PM 20.9680 -86.5900 145° Southeast 485 558 35,000  Level FlightAware
11:08PM 20.8870 -86.5300 145° Southeast 485 558 35,000  Level FlightAware
11:09PM 20.8190 -86.4800 145° Southeast 485 558 35,000  Level FlightAware
11:10PM 20.7380 -86.4200 145° Southeast 484 557 35,000  Level FlightAware
11:10PM 20.6640 -86.3650 145° Southeast 484 557 35,000  Level FlightAware
11:11PM 20.5800 -86.3030 145° Southeast 484 557 35,000  Level FlightAware
11:12PM 20.4990 -86.2430 145° Southeast 484 557 35,000  Level FlightAware
11:12PM 20.4380 -86.1980 145° Southeast 484 557 35,000  Level FlightAware
11:13PM 20.3460 -86.1290 145° Southeast 484 557 35,000  Level FlightAware
11:14PM 20.2900 -86.0870 145° Southeast 484 557 35,000  Level FlightAware
11:15PM 20.1860 -86.0120 146° Southeast 487 560 35,000  Level FlightAware
11:15PM 20.0870 -85.9400 146° Southeast 485 558 35,000  Level FlightAware
11:16PM 20.0080 -85.8780 144° Southeast 488 562 35,000  Level FlightAware
11:17PM 19.9430 -85.8170 139° Southeast 489 563 35,000  Level FlightAware
11:18PM 19.8700 -85.7480 138° Southeast 488 562 35,000  Level FlightAware
11:18PM 19.7950 -85.6770 138° Southeast 489 563 35,000  Level FlightAware
11:19PM 19.7260 -85.6120 138° Southeast 490 564 35,000  Level FlightAware
11:20PM 19.6360 -85.5270 138° Southeast 492 566 35,000  Level FlightAware
11:21PM 19.5360 -85.4340 139° Southeast 491 565 35,000  Level FlightAware
11:22PM 19.4400 -85.3440 139° Southeast 490 564 35,000  Level FlightAware
11:22PM 19.3720 -85.2810 139° Southeast 488 562 35,000  Level FlightAware
11:23PM 19.3180 -85.2290 138° Southeast 488 562 35,000  Level FlightAware
11:24PM 19.2060 -85.1250 139° Southeast 490 564 35,000  Level FlightAware
11:25PM 19.1550 -85.0760 138° Southeast 490 564 35,000  Level FlightAware
11:26PM 19.0860 -85.0100 138° Southeast 490 564 35,000  Level FlightAware
11:27PM 18.9670 -84.9030 140° Southeast 489 563 35,000  Level FlightAware
11:27PM 18.9160 -84.8540 138° Southeast 489 563 35,000  Level FlightAware
11:28PM 18.8470 -84.7890 138° Southeast 489 563 35,000  Level FlightAware
11:29PM 18.7960 -84.7400 138° Southeast 489 563 35,000  Level FlightAware
11:29PM 18.7270 -84.6740 138° Southeast 489 563 35,000  Level FlightAware
11:30PM 18.6700 -84.6200 138° Southeast 489 563 35,000  Level FlightAware
11:31PM 18.6180 -84.5710 138° Southeast 489 563 35,000  Level FlightAware
11:31PM 18.5480 -84.5050 138° Southeast 489 563 35,000  Level FlightAware
11:32PM 18.4970 -84.4560 138° Southeast 489 563 35,000  Level FlightAware
11:33PM 18.4280 -84.3910 138° Southeast 489 563 35,000  Level FlightAware
11:33PM 18.3750 -84.3410 138° Southeast 489 563 35,000  Level FlightAware
11:34PM 18.3100 -84.2780 137° Southeast 489 563 35,000  Level FlightAware
11:35PM 18.2580 -84.2290 138° Southeast 489 563 35,000  Level FlightAware
11:36PM 18.1930 -84.1670 138° Southeast 489 563 35,000  Level FlightAware
11:38PM 18.0043 -83.9829 137° Southeast  Level Estimated
11:39PM 17.9083 -83.8895 137° Southeast  Level Estimated
11:40PM 17.8122 -83.7961 137° Southeast  Level Estimated
11:41PM 17.7161 -83.7029 137° Southeast  Level Estimated
11:42PM 17.6200 -83.6097 137° Southeast  Level Estimated
11:43PM 17.5238 -83.5167 137° Southeast  Level Estimated
11:44PM 17.4275 -83.4237 137° Southeast  Level Estimated
11:45PM 17.3312 -83.3308 137° Southeast  Level Estimated
11:46PM 17.2349 -83.2381 137° Southeast  Level Estimated
11:47PM 17.1386 -83.1454 137° Southeast  Level Estimated
11:48PM 17.0422 -83.0529 137° Southeast  Level Estimated
11:49PM 16.9457 -82.9604 137° Southeast  Level Estimated
11:50PM 16.8492 -82.8680 137° Southeast  Level Estimated
11:51PM 16.7527 -82.7757 138° Southeast  Level Estimated
11:52PM 16.6561 -82.6835 138° Southeast  Level Estimated
11:53PM 16.5595 -82.5914 138° Southeast  Level Estimated
11:54PM 16.4629 -82.4994 138° Southeast  Level Estimated
11:55PM 16.3662 -82.4075 138° Southeast  Level Estimated
11:56PM 16.2694 -82.3157 138° Southeast  Level Estimated
11:57PM 16.1727 -82.2240 138° Southeast  Level Estimated
11:58PM 16.0758 -82.1323 138° Southeast  Level Estimated
11:59PM 15.9790 -82.0408 138° Southeast  Level Estimated
12:00AM 15.8821 -81.9493 138° Southeast  Level Estimated
12:01AM 15.7852 -81.8580 138° Southeast  Level Estimated
12:02AM 15.6882 -81.7667 138° Southeast  Level Estimated
12:03AM 15.5912 -81.6755 138° Southeast  Level Estimated
12:04AM 15.4942 -81.5844 138° Southeast  Level Estimated
12:05AM 15.3971 -81.4933 138° Southeast  Level Estimated
12:06AM 15.3000 -81.4024 138° Southeast  Level Estimated
12:07AM 15.2028 -81.3115 138° Southeast  Level Estimated
12:08AM 15.1056 -81.2207 138° Southeast  Level Estimated
12:09AM 15.0084 -81.1301 138° Southeast  Level Estimated
12:10AM 14.9111 -81.0395 138° Southeast  Level Estimated
12:11AM 14.8138 -80.9489 138° Southeast  Level Estimated
12:12AM 14.7165 -80.8585 138° Southeast  Level Estimated
12:13AM 14.6191 -80.7681 138° Southeast  Level Estimated
12:14AM 14.5217 -80.6778 138° Southeast  Level Estimated
12:15AM 14.4243 -80.5876 138° Southeast  Level Estimated
12:16AM 14.3268 -80.4975 138° Southeast  Level Estimated
12:17AM 14.2293 -80.4074 138° Southeast  Level Estimated
12:18AM 14.1318 -80.3175 138° Southeast  Level Estimated
12:19AM 14.0342 -80.2276 138° Southeast  Level Estimated
12:20AM 13.9366 -80.1377 138° Southeast  Level Estimated
12:21AM 13.8390 -80.0480 138° Southeast  Level Estimated
12:22AM 13.7413 -79.9583 138° Southeast  Level Estimated
12:23AM 13.6436 -79.8687 138° Southeast  Level Estimated
12:24AM 13.5458 -79.7792 138° Southeast  Level Estimated
12:25AM 13.4481 -79.6898 138° Southeast  Level Estimated
12:26AM 13.3503 -79.6004 138° Southeast  Level Estimated
12:27AM 13.2524 -79.5111 138° Southeast  Level Estimated
12:28AM 13.1546 -79.4219 138° Southeast  Level Estimated
12:29AM 13.0567 -79.3327 138° Southeast  Level Estimated
12:30AM 12.9588 -79.2436 138° Southeast  Level Estimated
12:31AM 12.8608 -79.1546 138° Southeast  Level Estimated
12:32AM 12.7628 -79.0657 138° Southeast  Level Estimated
12:33AM 12.6648 -78.9768 138° Southeast  Level Estimated
12:34AM 12.5668 -78.8880 139° Southeast  Level Estimated
12:35AM 12.4687 -78.7992 139° Southeast  Level Estimated
12:36AM 12.3706 -78.7106 139° Southeast  Level Estimated
12:37AM 12.2725 -78.6220 139° Southeast  Level Estimated
12:38AM 12.1743 -78.5334 139° Southeast  Level Estimated
12:39AM 12.0761 -78.4449 139° Southeast  Level Estimated
12:40AM 11.9779 -78.3565 139° Southeast  Level Estimated
12:41AM 11.8797 -78.2682 139° Southeast  Level Estimated
12:42AM 11.7814 -78.1799 139° Southeast  Level Estimated
12:43AM 11.6831 -78.0917 139° Southeast  Level Estimated
12:44AM 11.5848 -78.0035 139° Southeast  Level Estimated
12:45AM 11.4865 -77.9154 139° Southeast  Level Estimated
12:46AM 11.3881 -77.8274 139° Southeast  Level Estimated
12:47AM 11.2897 -77.7394 139° Southeast  Level Estimated
12:48AM 11.1912 -77.6515 139° Southeast  Level Estimated
12:49AM 11.0928 -77.5637 139° Southeast  Level Estimated
12:50AM 10.9943 -77.4759 139° Southeast  Level Estimated
12:51AM 10.8958 -77.3882 139° Southeast  Level Estimated
12:52AM 10.7973 -77.3005 139° Southeast  Level Estimated
12:53AM 10.6987 -77.2129 139° Southeast  Level Estimated
12:54AM 10.6002 -77.1253 139° Southeast  Level Estimated
12:55AM 10.5015 -77.0378 139° Southeast  Level Estimated
12:56AM 10.4029 -76.9503 139° Southeast  Level Estimated
12:57AM 10.3043 -76.8629 139° Southeast  Level Estimated
12:58AM 10.2056 -76.7756 139° Southeast  Level Estimated
12:59AM 10.1069 -76.6883 139° Southeast  Level Estimated
01:00AM 10.0082 -76.6011 139° Southeast  Level Estimated
01:01AM 9.9094 -76.5139 139° Southeast  Level Estimated
01:02AM 9.8107 -76.4268 139° Southeast  Level Estimated
01:03AM 9.7119 -76.3397 139° Southeast  Level Estimated
01:04AM 9.6131 -76.2527 139° Southeast  Level Estimated
01:04AM 9.3150 -75.9350 139° Southeast 457 526 37,000  Level FlightAware
01:05AM 9.5142 -76.1657 139° Southeast  Level Estimated
01:05AM 9.2560 -75.8710 133° Southeast 458 527 37,000  Level FlightAware
01:06AM 9.1940 -75.7990 131° Southeast 458 527 37,000  Level FlightAware
01:06AM 9.1440 -75.7410 131° Southeast 457 526 37,000  Level FlightAware
01:07AM 9.0710 -75.6670 135° Southeast 459 528 37,000  Level FlightAware
01:08AM 9.0010 -75.6040 138° Southeast 459 528 37,000  Level FlightAware
01:08AM 8.9370 -75.5460 138° Southeast 457 526 37,000  Level FlightAware
01:09AM 8.8760 -75.4900 138° Southeast 457 526 37,000  Level FlightAware
01:10AM 8.8100 -75.4290 138° Southeast 456 525 37,000  Level FlightAware
01:10AM 8.7450 -75.3690 138° Southeast 457 526 37,000  Level FlightAware
01:11AM 8.6860 -75.3160 138° Southeast 457 526 37,000  Level FlightAware
01:12AM 8.6210 -75.2560 138° Southeast 457 526 37,000  Level FlightAware
01:13AM 8.5750 -75.2150 139° Southeast 457 526 37,000  Level FlightAware
01:14AM 8.5110 -75.1560 138° Southeast 457 526 37,000  Level FlightAware
01:14AM 8.4650 -75.1140 138° Southeast 457 526 37,000  Level FlightAware
01:15AM 8.4010 -75.0550 138° Southeast 457 526 37,000  Level FlightAware
01:16AM 8.3520 -75.0120 139° Southeast 457 526 37,000  Level FlightAware
01:16AM 8.2880 -74.9530 138° Southeast 457 526 37,000  Level FlightAware
01:17AM 8.2390 -74.9080 138° Southeast 457 526 37,000  Level FlightAware
01:18AM 8.1750 -74.8500 138° Southeast 457 526 37,000  Level FlightAware
01:18AM 8.1270 -74.8060 138° Southeast 457 526 37,000  Level FlightAware
01:19AM 8.0610 -74.7470 138° Southeast 457 526 37,000  Level FlightAware
01:20AM 8.0150 -74.7040 137° Southeast 457 526 37,000  Level FlightAware
01:21AM 7.9490 -74.6450 138° Southeast 457 526 37,000  Level FlightAware
01:23AM 7.7567 -74.4756 138° Southeast  Level FlightAware Approximate
01:24AM 7.6598 -74.3869 138° Southeast  Level FlightAware Approximate
01:25AM 7.5628 -74.2983 138° Southeast  Level FlightAware Approximate
01:26AM 7.4658 -74.2097 138° Southeast  Level FlightAware Approximate
01:27AM 7.3688 -74.1211 138° Southeast  Level FlightAware Approximate
01:28AM 7.2718 -74.0326 138° Southeast  Level FlightAware Approximate
01:29AM 7.1748 -73.9441 138° Southeast  Level FlightAware Approximate
01:30AM 7.0777 -73.8556 138° Southeast  Level FlightAware Approximate
01:30AM 6.8710 -73.7200 138° Southeast 477 549 37,000  Level FlightAware
01:30AM 6.7910 -73.6770 152° Southeast 477 549 37,400 1,260 Climbing FlightAware
01:31AM 6.7050 -73.6310 152° Southeast 460 529 38,800 1,140 Climbing FlightAware
01:32AM 6.6300 -73.5900 151° Southeast 455 524 39,000 120 Climbing FlightAware
01:32AM 6.5490 -73.5460 152° Southeast 455 524 39,000  Level FlightAware
01:33AM 6.4750 -73.5060 152° Southeast 455 524 39,000  Level FlightAware
01:34AM 6.3910 -73.4610 152° Southeast 456 525 39,000  Level FlightAware
01:35AM 6.3180 -73.4210 151° Southeast 456 525 39,000  Level FlightAware
01:35AM 6.2440 -73.3810 152° Southeast 457 526 39,000  Level FlightAware
01:36AM 6.1610 -73.3370 152° Southeast 458 527 39,000  Level FlightAware
01:37AM 6.0810 -73.2930 151° Southeast 458 527 39,000  Level FlightAware
01:37AM 6.0050 -73.2520 152° Southeast 457 526 39,000  Level FlightAware
01:38AM 5.9230 -73.2080 152° Southeast 456 525 39,000  Level FlightAware
01:39AM 5.8300 -73.1570 151° Southeast 456 525 39,000  Level FlightAware
01:40AM 5.7310 -73.1040 152° Southeast 457 526 39,000  Level FlightAware
01:41AM 5.6390 -73.0550 152° Southeast 458 527 39,000  Level FlightAware
01:41AM 5.5640 -73.0150 152° Southeast 459 528 39,000  Level FlightAware
01:42AM 5.4840 -72.9720 152° Southeast 459 528 39,000  Level FlightAware
01:43AM 5.4020 -72.9270 151° Southeast 457 526 39,000  Level FlightAware
01:43AM 5.3200 -72.8830 152° Southeast 456 525 39,000  Level FlightAware
01:44AM 5.2460 -72.8430 152° Southeast 456 525 39,000  Level FlightAware
01:45AM 5.1700 -72.8030 152° Southeast 456 525 39,000  Level FlightAware
01:45AM 5.0870 -72.7580 152° Southeast 455 524 39,000  Level FlightAware
01:46AM 5.0130 -72.7180 152° Southeast 455 524 39,000  Level FlightAware
01:47AM 4.9560 -72.6860 151° Southeast 455 524 39,000  Level FlightAware
01:48AM 4.8810 -72.6440 151° Southeast 455 524 39,000  Level FlightAware
01:48AM 4.8250 -72.6130 151° Southeast 455 524 39,000  Level FlightAware
01:49AM 4.7670 -72.5810 151° Southeast 455 524 39,000  Level FlightAware
01:50AM 4.6900 -72.5380 151° Southeast 455 524 39,000  Level FlightAware
01:50AM 4.6310 -72.5050 151° Southeast 455 524 39,000  Level FlightAware
01:51AM 4.5560 -72.4630 151° Southeast 455 524 39,000  Level FlightAware
01:52AM 4.5000 -72.4320 151° Southeast 455 524 39,000  Level FlightAware
01:53AM 4.4210 -72.3880 151° Southeast 455 524 39,000  Level FlightAware
01:53AM 4.3680 -72.3590 151° Southeast 455 524 39,000  Level FlightAware
01:54AM 4.2930 -72.3170 151° Southeast 455 524 39,000  Level FlightAware
01:55AM 4.2350 -72.2850 151° Southeast 455 524 39,000  Level FlightAware
01:55AM 4.1630 -72.2450 151° Southeast 455 524 39,000  Level FlightAware
01:58AM 3.9073 -72.1150 145° Southeast  Level FlightAware Approximate
01:59AM 3.8007 -72.0397 145° Southeast  Level FlightAware Approximate
02:00AM 3.6940 -71.9645 145° Southeast  Level FlightAware Approximate
02:01AM 3.5874 -71.8893 145° Southeast  Level FlightAware Approximate
02:02AM 3.4808 -71.8141 145° Southeast  Level FlightAware Approximate
02:03AM 3.3741 -71.7389 145° Southeast  Level FlightAware Approximate
02:04AM 3.2675 -71.6637 145° Southeast  Level FlightAware Approximate
02:05AM 3.1608 -71.5886 145° Southeast  Level FlightAware Approximate
02:06AM 3.0542 -71.5135 145° Southeast  Level FlightAware Approximate
02:07AM 2.9475 -71.4384 145° Southeast  Level FlightAware Approximate
02:08AM 2.8408 -71.3633 145° Southeast  Level FlightAware Approximate
02:09AM 2.7342 -71.2882 145° Southeast  Level FlightAware Approximate
02:10AM 2.6275 -71.2131 145° Southeast  Level FlightAware Approximate
02:11AM 2.5208 -71.1381 145° Southeast  Level FlightAware Approximate
02:12AM 2.4141 -71.0630 145° Southeast  Level FlightAware Approximate
02:13AM 2.3074 -70.9880 145° Southeast  Level FlightAware Approximate
02:14AM 2.2007 -70.9130 145° Southeast  Level FlightAware Approximate
02:15AM 2.0940 -70.8380 145° Southeast  Level FlightAware Approximate
02:16AM 1.9873 -70.7630 145° Southeast  Level FlightAware Approximate
02:17AM 1.8806 -70.6880 145° Southeast  Level FlightAware Approximate
02:18AM 1.7739 -70.6130 145° Southeast  Level FlightAware Approximate
02:19AM 1.6672 -70.5380 145° Southeast  Level FlightAware Approximate
02:20AM 1.5605 -70.4631 145° Southeast  Level FlightAware Approximate
02:21AM 1.4538 -70.3881 145° Southeast  Level FlightAware Approximate
02:22AM 1.3470 -70.3132 145° Southeast  Level FlightAware Approximate
02:23AM 1.2403 -70.2382 145° Southeast  Level FlightAware Approximate
02:24AM 1.1425 -70.1524 138° Southeast  Level FlightAware Approximate
02:25AM 1.0452 -70.0659 138° Southeast  Level FlightAware Approximate
02:26AM 0.9480 -69.9793 138° Southeast  Level FlightAware Approximate
02:27AM 0.8507 -69.8928 138° Southeast  Level FlightAware Approximate
02:28AM 0.7535 -69.8063 138° Southeast  Level FlightAware Approximate
02:29AM 0.6562 -69.7197 138° Southeast  Level FlightAware Approximate
02:30AM 0.5590 -69.6332 138° Southeast  Level FlightAware Approximate
02:31AM 0.4618 -69.5467 138° Southeast  Level FlightAware Approximate
02:32AM 0.3645 -69.4601 138° Southeast  Level FlightAware Approximate
02:33AM 0.2673 -69.3736 138° Southeast  Level FlightAware Approximate
02:34AM 0.1700 -69.2871 138° Southeast  Level FlightAware Approximate
02:35AM 0.0728 -69.2005 138° Southeast  Level FlightAware Approximate
02:36AM -0.0245 -69.1140 138° Southeast  Level FlightAware Approximate
02:37AM -0.1217 -69.0275 138° Southeast  Level FlightAware Approximate
02:38AM -0.2190 -68.9410 138° Southeast  Level FlightAware Approximate
02:39AM -0.3162 -68.8545 138° Southeast  Level FlightAware Approximate
02:40AM -0.4135 -68.7679 138° Southeast  Level FlightAware Approximate
02:41AM -0.5107 -68.6814 138° Southeast  Level FlightAware Approximate
02:42AM -0.6080 -68.5949 138° Southeast  Level FlightAware Approximate
02:43AM -0.7053 -68.5083 138° Southeast  Level FlightAware Approximate
02:44AM -0.8025 -68.4218 138° Southeast  Level FlightAware Approximate
02:45AM -0.8997 -68.3353 138° Southeast  Level FlightAware Approximate
02:46AM -0.9970 -68.2487 138° Southeast  Level FlightAware Approximate
02:47AM -1.0942 -68.1622 138° Southeast  Level FlightAware Approximate
02:48AM -1.1914 -68.0756 138° Southeast  Level FlightAware Approximate
02:49AM -1.2887 -67.9890 138° Southeast  Level FlightAware Approximate
02:50AM -1.3859 -67.9025 138° Southeast  Level FlightAware Approximate
02:51AM -1.4831 -67.8159 138° Southeast  Level FlightAware Approximate
02:52AM -1.5804 -67.7293 138° Southeast  Level FlightAware Approximate
02:53AM -1.6776 -67.6427 138° Southeast  Level FlightAware Approximate
02:54AM -1.7748 -67.5561 138° Southeast  Level FlightAware Approximate
02:55AM -1.8720 -67.4695 138° Southeast  Level FlightAware Approximate
02:56AM -1.9692 -67.3829 138° Southeast  Level FlightAware Approximate
02:57AM -2.0664 -67.2962 138° Southeast  Level FlightAware Approximate
02:58AM -2.1636 -67.2096 138° Southeast  Level FlightAware Approximate
02:59AM -2.2608 -67.1230 138° Southeast  Level FlightAware Approximate
03:00AM -2.3580 -67.0363 138° Southeast  Level FlightAware Approximate
03:01AM -2.4552 -66.9496 138° Southeast  Level FlightAware Approximate
03:02AM -2.5524 -66.8629 138° Southeast  Level FlightAware Approximate
03:03AM -2.6495 -66.7762 138° Southeast  Level FlightAware Approximate
03:04AM -2.7467 -66.6895 138° Southeast  Level FlightAware Approximate
03:05AM -2.8439 -66.6028 138° Southeast  Level FlightAware Approximate
03:06AM -2.9410 -66.5160 138° Southeast  Level FlightAware Approximate
03:07AM -3.0382 -66.4293 138° Southeast  Level FlightAware Approximate
03:08AM -3.1353 -66.3425 138° Southeast  Level FlightAware Approximate
03:09AM -3.2324 -66.2557 138° Southeast  Level FlightAware Approximate
03:10AM -3.3296 -66.1689 138° Southeast  Level FlightAware Approximate
03:11AM -3.4267 -66.0821 138° Southeast  Level FlightAware Approximate
03:12AM -3.5238 -65.9952 138° Southeast  Level FlightAware Approximate
03:13AM -3.6209 -65.9084 138° Southeast  Level FlightAware Approximate
03:14AM -3.7180 -65.8215 138° Southeast  Level FlightAware Approximate
03:15AM -3.8150 -65.7346 138° Southeast  Level FlightAware Approximate
03:16AM -3.9121 -65.6477 138° Southeast  Level FlightAware Approximate
03:17AM -4.0092 -65.5608 138° Southeast  Level FlightAware Approximate
03:18AM -4.1063 -65.4738 138° Southeast  Level FlightAware Approximate
03:19AM -4.2033 -65.3868 138° Southeast  Level FlightAware Approximate
03:20AM -4.3004 -65.2998 138° Southeast  Level FlightAware Approximate
03:21AM -4.3974 -65.2128 138° Southeast  Level FlightAware Approximate
03:22AM -4.4944 -65.1257 138° Southeast  Level FlightAware Approximate
03:23AM -4.5914 -65.0387 138° Southeast  Level FlightAware Approximate
03:24AM -4.6884 -64.9516 138° Southeast  Level FlightAware Approximate
03:25AM -4.7854 -64.8645 138° Southeast  Level FlightAware Approximate
03:26AM -4.8824 -64.7773 138° Southeast  Level FlightAware Approximate
03:27AM -4.9793 -64.6901 138° Southeast  Level FlightAware Approximate
03:28AM -5.0763 -64.6030 138° Southeast  Level FlightAware Approximate
03:29AM -5.1732 -64.5157 138° Southeast  Level FlightAware Approximate
03:30AM -5.2702 -64.4285 138° Southeast  Level FlightAware Approximate
03:31AM -5.3671 -64.3412 138° Southeast  Level FlightAware Approximate
03:32AM -5.4640 -64.2539 138° Southeast  Level FlightAware Approximate
03:33AM -5.5609 -64.1666 138° Southeast  Level FlightAware Approximate
03:34AM -5.6578 -64.0792 138° Southeast  Level FlightAware Approximate
03:35AM -5.7546 -63.9918 138° Southeast  Level FlightAware Approximate
03:36AM -5.8515 -63.9044 138° Southeast  Level FlightAware Approximate
03:37AM -5.9483 -63.8170 138° Southeast  Level FlightAware Approximate
03:38AM -6.0451 -63.7295 138° Southeast  Level FlightAware Approximate
03:39AM -6.1420 -63.6420 138° Southeast  Level FlightAware Approximate
03:40AM -6.2387 -63.5544 138° Southeast  Level FlightAware Approximate
03:41AM -6.3355 -63.4669 138° Southeast  Level FlightAware Approximate
03:42AM -6.4323 -63.3793 138° Southeast  Level FlightAware Approximate
03:43AM -6.5290 -63.2916 138° Southeast  Level FlightAware Approximate
03:44AM -6.6258 -63.2039 138° Southeast  Level FlightAware Approximate
03:45AM -6.7225 -63.1162 138° Southeast  Level FlightAware Approximate
03:46AM -6.8192 -63.0285 138° Southeast  Level FlightAware Approximate
03:47AM -6.9159 -62.9407 138° Southeast  Level FlightAware Approximate
03:48AM -7.0126 -62.8529 138° Southeast  Level FlightAware Approximate
03:49AM -7.1093 -62.7651 138° Southeast  Level FlightAware Approximate
03:50AM -7.2059 -62.6772 138° Southeast  Level FlightAware Approximate
03:51AM -7.3025 -62.5892 138° Southeast  Level FlightAware Approximate
03:52AM -7.3991 -62.5013 138° Southeast  Level FlightAware Approximate
03:53AM -7.4957 -62.4133 138° Southeast  Level FlightAware Approximate
03:54AM -7.5923 -62.3252 138° Southeast  Level FlightAware Approximate
03:55AM -7.6888 -62.2372 138° Southeast  Level FlightAware Approximate
03:56AM -7.7854 -62.1490 138° Southeast  Level FlightAware Approximate
03:57AM -7.8819 -62.0609 138° Southeast  Level FlightAware Approximate
03:58AM -7.9784 -61.9727 138° Southeast  Level FlightAware Approximate
03:59AM -8.0749 -61.8844 138° Southeast  Level FlightAware Approximate
04:00AM -8.1713 -61.7962 138° Southeast  Level FlightAware Approximate
04:01AM -8.2678 -61.7078 138° Southeast  Level FlightAware Approximate
04:02AM -8.3642 -61.6194 138° Southeast  Level FlightAware Approximate
04:03AM -8.4608 -61.5309 138° Southeast  Level FlightAware Approximate
04:04AM -8.5573 -61.4423 138° Southeast  Level FlightAware Approximate
04:05AM -8.6539 -61.3536 138° Southeast  Level FlightAware Approximate
04:06AM -8.7504 -61.2649 138° Southeast  Level FlightAware Approximate
04:07AM -8.8469 -61.1762 138° Southeast  Level FlightAware Approximate
04:08AM -8.9433 -61.0873 138° Southeast  Level FlightAware Approximate
04:09AM -9.0398 -60.9985 138° Southeast  Level FlightAware Approximate
04:10AM -9.1362 -60.9096 138° Southeast  Level FlightAware Approximate
04:11AM -9.2326 -60.8207 138° Southeast  Level FlightAware Approximate
04:12AM -9.3290 -60.7317 138° Southeast  Level FlightAware Approximate
04:13AM -9.4254 -60.6427 138° Southeast  Level FlightAware Approximate
04:14AM -9.5217 -60.5536 138° Southeast  Level FlightAware Approximate
04:15AM -9.6180 -60.4644 138° Southeast  Level FlightAware Approximate
04:16AM -9.7143 -60.3752 138° Southeast  Level FlightAware Approximate
04:17AM -9.8106 -60.2860 138° Southeast  Level FlightAware Approximate
04:18AM -9.9069 -60.1967 138° Southeast  Level FlightAware Approximate
04:19AM -10.0031 -60.1074 138° Southeast  Level FlightAware Approximate
04:20AM -10.0993 -60.0180 138° Southeast  Level FlightAware Approximate
04:21AM -10.1955 -59.9285 138° Southeast  Level FlightAware Approximate
04:22AM -10.2916 -59.8390 138° Southeast  Level FlightAware Approximate
04:23AM -10.3877 -59.7494 138° Southeast  Level FlightAware Approximate
04:24AM -10.4840 -59.6597 137° Southeast  Level FlightAware Approximate
04:25AM -10.5803 -59.5698 137° Southeast  Level FlightAware Approximate
04:26AM -10.6765 -59.4800 137° Southeast  Level FlightAware Approximate
04:27AM -10.7727 -59.3900 137° Southeast  Level FlightAware Approximate
04:28AM -10.8689 -59.3000 137° Southeast  Level FlightAware Approximate
04:29AM -10.9650 -59.2100 137° Southeast  Level FlightAware Approximate
04:30AM -11.0611 -59.1199 137° Southeast  Level FlightAware Approximate
04:31AM -11.1572 -59.0297 137° Southeast  Level FlightAware Approximate
04:32AM -11.2533 -58.9394 137° Southeast  Level FlightAware Approximate
04:33AM -11.3493 -58.8492 137° Southeast  Level FlightAware Approximate
04:34AM -11.4453 -58.7588 137° Southeast  Level FlightAware Approximate
04:35AM -11.5413 -58.6684 137° Southeast  Level FlightAware Approximate
04:36AM -11.6372 -58.5779 137° Southeast  Level FlightAware Approximate
04:37AM -11.7332 -58.4874 137° Southeast  Level FlightAware Approximate
04:38AM -11.8291 -58.3968 137° Southeast  Level FlightAware Approximate
04:39AM -11.9249 -58.3061 137° Southeast  Level FlightAware Approximate
04:40AM -12.0208 -58.2154 137° Southeast  Level FlightAware Approximate
04:41AM -12.1166 -58.1246 137° Southeast  Level FlightAware Approximate
04:42AM -12.2124 -58.0337 137° Southeast  Level FlightAware Approximate
04:43AM -12.3081 -57.9428 137° Southeast  Level FlightAware Approximate
04:44AM -12.4038 -57.8518 137° Southeast  Level FlightAware Approximate
04:45AM -12.4995 -57.7607 137° Southeast  Level FlightAware Approximate
04:46AM -12.5952 -57.6696 137° Southeast  Level FlightAware Approximate
04:47AM -12.6908 -57.5784 137° Southeast  Level FlightAware Approximate
04:48AM -12.7864 -57.4871 137° Southeast  Level FlightAware Approximate
04:49AM -12.8820 -57.3958 137° Southeast  Level FlightAware Approximate
04:50AM -12.9775 -57.3044 137° Southeast  Level FlightAware Approximate
04:51AM -13.0730 -57.2129 137° Southeast  Level FlightAware Approximate
04:52AM -13.1685 -57.1214 137° Southeast  Level FlightAware Approximate
04:53AM -13.2639 -57.0298 137° Southeast  Level FlightAware Approximate
04:54AM -13.3594 -56.9381 137° Southeast  Level FlightAware Approximate
04:55AM -13.4547 -56.8463 137° Southeast  Level FlightAware Approximate
04:56AM -13.5501 -56.7545 137° Southeast  Level FlightAware Approximate
04:57AM -13.6454 -56.6626 137° Southeast  Level FlightAware Approximate
04:58AM -13.7406 -56.5706 137° Southeast  Level FlightAware Approximate
04:59AM -13.8359 -56.4785 137° Southeast  Level FlightAware Approximate
05:00AM -13.9311 -56.3864 137° Southeast  Level FlightAware Approximate
05:01AM -14.0262 -56.2942 137° Southeast  Level FlightAware Approximate
05:02AM -14.1214 -56.2019 137° Southeast  Level FlightAware Approximate
05:03AM -14.2165 -56.1096 137° Southeast  Level FlightAware Approximate
05:04AM -14.3115 -56.0171 137° Southeast  Level FlightAware Approximate
05:05AM -14.4066 -55.9246 137° Southeast  Level FlightAware Approximate
05:06AM -14.5016 -55.8320 137° Southeast  Level FlightAware Approximate
05:07AM -14.5965 -55.7393 137° Southeast  Level FlightAware Approximate
05:08AM -14.6914 -55.6466 137° Southeast  Level FlightAware Approximate
05:09AM -14.7863 -55.5537 137° Southeast  Level FlightAware Approximate
05:10AM -14.8812 -55.4608 137° Southeast  Level FlightAware Approximate
05:11AM -14.9760 -55.3678 137° Southeast  Level FlightAware Approximate
05:12AM -15.0707 -55.2747 137° Southeast  Level FlightAware Approximate
05:13AM -15.1655 -55.1816 136° Southeast  Level FlightAware Approximate
05:14AM -15.2601 -55.0883 136° Southeast  Level FlightAware Approximate
05:15AM -15.3548 -54.9950 136° Southeast  Level FlightAware Approximate
05:16AM -15.4494 -54.9016 136° Southeast  Level FlightAware Approximate
05:17AM -15.5440 -54.8081 136° Southeast  Level FlightAware Approximate
05:18AM -15.6385 -54.7145 136° Southeast  Level FlightAware Approximate
05:19AM -15.7330 -54.6208 136° Southeast  Level FlightAware Approximate
05:20AM -15.8275 -54.5271 136° Southeast  Level FlightAware Approximate
05:21AM -15.9219 -54.4332 136° Southeast  Level FlightAware Approximate
05:22AM -16.0163 -54.3393 136° Southeast  Level FlightAware Approximate
05:23AM -16.1106 -54.2453 136° Southeast  Level FlightAware Approximate
05:24AM -16.2049 -54.1511 136° Southeast  Level FlightAware Approximate
05:25AM -16.2992 -54.0569 136° Southeast  Level FlightAware Approximate
05:26AM -16.3934 -53.9626 136° Southeast  Level FlightAware Approximate
05:27AM -16.4876 -53.8683 136° Southeast  Level FlightAware Approximate
05:28AM -16.5817 -53.7738 136° Southeast  Level FlightAware Approximate
05:29AM -16.6758 -53.6792 136° Southeast  Level FlightAware Approximate
05:30AM -16.7698 -53.5845 136° Southeast  Level FlightAware Approximate
05:31AM -16.8638 -53.4898 136° Southeast  Level FlightAware Approximate
05:32AM -16.9578 -53.3949 136° Southeast  Level FlightAware Approximate
05:33AM -17.0517 -53.3000 136° Southeast  Level FlightAware Approximate
05:34AM -17.1455 -53.2049 136° Southeast  Level FlightAware Approximate
05:35AM -17.2394 -53.1098 136° Southeast  Level FlightAware Approximate
05:36AM -17.3331 -53.0146 136° Southeast  Level FlightAware Approximate
05:37AM -17.4269 -52.9192 136° Southeast  Level FlightAware Approximate
05:38AM -17.5206 -52.8238 136° Southeast  Level FlightAware Approximate
05:39AM -17.6142 -52.7283 136° Southeast  Level FlightAware Approximate
05:40AM -17.7078 -52.6326 136° Southeast  Level FlightAware Approximate
05:41AM -17.8013 -52.5369 136° Southeast  Level FlightAware Approximate
05:42AM -17.8948 -52.4411 136° Southeast  Level FlightAware Approximate
05:43AM -17.9883 -52.3451 136° Southeast  Level FlightAware Approximate
05:44AM -18.0817 -52.2491 136° Southeast  Level FlightAware Approximate
05:45AM -18.1751 -52.1530 136° Southeast  Level FlightAware Approximate
05:46AM -18.2684 -52.0568 136° Southeast  Level FlightAware Approximate
05:46AM -18.8430 -50.8670 136° Southeast 509 586 41,000  Level FlightAware
05:47AM -18.3616 -51.9604 136° Southeast  Level FlightAware Approximate
05:47AM -18.9010 -50.8040 134° Southeast 509 586 41,000  Level FlightAware
05:47AM -18.9520 -50.7480 134° Southeast 509 586 41,000  Level FlightAware
05:48AM -19.0620 -50.6280 134° Southeast 512 589 41,000  Level FlightAware
05:49AM -19.1380 -50.5450 134° Southeast 514 592 41,000  Level FlightAware
05:50AM -19.2020 -50.4750 134° Southeast 514 592 41,000  Level FlightAware
05:50AM -19.2710 -50.3990 134° Southeast 515 593 41,000  Level FlightAware
05:51AM -19.3340 -50.3160 129° Southeast 518 596 41,000  Level FlightAware
05:52AM -19.4010 -50.2340 131° Southeast 517 595 41,000  Level FlightAware
05:53AM -19.4790 -50.1460 133° Southeast 517 595 41,000  Level FlightAware
05:53AM -19.5430 -50.0750 134° Southeast 517 595 41,000  Level FlightAware
05:54AM -19.6140 -49.9970 134° Southeast 519 597 41,000  Level FlightAware
05:55AM -19.6810 -49.9230 134° Southeast 520 598 41,000  Level FlightAware
05:55AM -19.7520 -49.8460 134° Southeast 521 600 41,000  Level FlightAware
05:56AM -19.8290 -49.7620 134° Southeast 522 601 41,000  Level FlightAware
05:57AM -19.8980 -49.6870 134° Southeast 523 602 41,000  Level FlightAware
05:57AM -19.9690 -49.6090 134° Southeast 524 603 41,000  Level FlightAware
05:58AM -20.0380 -49.5330 134° Southeast 524 603 41,000  Level FlightAware
05:59AM -20.1060 -49.4580 134° Southeast 526 605 41,000  Level FlightAware
05:59AM -20.1740 -49.3840 134° Southeast 526 605 41,000  Level FlightAware
06:02AM -20.3849 -49.2006 141° Southeast  Level Estimated
06:02AM -20.4000 -49.1340 141° Southeast 525 604 41,000  Level FlightAware
06:02AM -20.4640 -49.0630 134° Southeast 524 603 41,000  Level FlightAware
06:03AM -20.5380 -48.9810 134° Southeast 524 603 41,000  Level FlightAware
06:04AM -20.6090 -48.9030 134° Southeast 526 605 41,000  Level FlightAware
06:04AM -20.6790 -48.8240 133° Southeast 526 605 41,000  Level FlightAware
06:05AM -20.7470 -48.7490 134° Southeast 526 605 41,000  Level FlightAware
06:06AM -20.8170 -48.6700 133° Southeast 526 605 41,000  Level FlightAware
06:07AM -20.8920 -48.5850 133° Southeast 527 606 41,000  Level FlightAware
06:07AM -20.9660 -48.5020 134° Southeast 527 606 41,000  Level FlightAware
06:08AM -21.0360 -48.4240 134° Southeast 529 609 41,000  Level FlightAware
06:09AM -21.1040 -48.3470 133° Southeast 529 609 41,000  Level FlightAware
06:09AM -21.1710 -48.2710 133° Southeast 531 611 41,000 -360 Level FlightAware
06:10AM -21.2450 -48.1880 134° Southeast 528 608 40,500 -1,140 Descending FlightAware
06:11AM -21.3550 -48.0950 142° Southeast 525 604 39,100 -1,320 Descending FlightAware
06:12AM -21.4340 -48.0300 143° Southeast 523 602 38,400 -1,140 Descending FlightAware
06:12AM -21.5120 -47.9680 144° Southeast 524 603 37,600 -1,200 Descending FlightAware
06:13AM -21.6020 -47.8970 144° Southeast 527 606 36,700 -1,200 Descending FlightAware
06:14AM -21.6840 -47.8300 143° Southeast 530 610 35,900 -960 Descending FlightAware
06:14AM -21.7540 -47.7730 143° Southeast 526 605 35,500 -960 Descending FlightAware
06:15AM -21.8310 -47.7090 142° Southeast 525 604 34,700 -1,680 Descending FlightAware
06:16AM -21.9930 -47.5760 143° Southeast 515 593 32,100 -1,980 Descending FlightAware
06:17AM -22.0710 -47.5130 143° Southeast 506 582 30,600 -2,220 Descending FlightAware
06:18AM -22.1550 -47.4450 143° Southeast 498 573 29,000 -2,160 Descending FlightAware
06:19AM -22.2270 -47.3860 143° Southeast 491 565 27,600 -2,220 Descending FlightAware
06:19AM -22.3090 -47.3180 143° Southeast 483 556 25,900 -2,160 Descending FlightAware
06:20AM -22.3710 -47.2680 143° Southeast 478 550 24,700 -2,160 Descending FlightAware
06:21AM -22.4440 -47.2070 142° Southeast 469 540 23,200 -2,220 Descending FlightAware
06:21AM -22.5160 -47.1480 143° Southeast 463 533 21,700 -2,040 Descending FlightAware
06:22AM -22.5980 -47.0900 147° Southeast 443 510 20,200 -2,340 Descending FlightAware
06:23AM -22.7040 -47.0440 158° South 425 489 17,700 -2,400 Descending FlightAware
06:24AM -22.7780 -47.0130 159° South 415 478 16,400 -1,860 Descending FlightAware
06:24AM -22.8560 -46.9810 159° South 403 464 15,100 -1,740 Descending FlightAware
06:25AM -22.9250 -46.9520 159° South 386 444 14,000 -1,980 Descending FlightAware
06:26AM -22.9950 -46.9220 158° South 364 419 12,400 -2,100 Descending FlightAware
06:27AM -23.0570 -46.8960 159° South 337 388 11,100 -1,740 Descending FlightAware
06:27AM -23.1170 -46.8710 159° South 322 371 10,000 -1,500 Descending FlightAware
06:28AM -23.1520 -46.8560 158° South 322 371 9,400 -1,440 Descending FlightAware
06:28AM -23.1770 -46.8450 158° South 316 364 9,000 -1,320 Descending FlightAware
06:28AM -23.2150 -46.8290 159° South 309 356 8,400 -1,200 Descending FlightAware
06:29AM -23.2470 -46.8160 160° South 302 348 8,000 -480 Descending FlightAware
06:29AM -23.2870 -46.7990 159° South 300 345 8,000 -120 Level FlightAware
06:30AM -23.3350 -46.7790 159° South 290 334 7,900 -480 Descending FlightAware
06:30AM -23.3740 -46.7600 156° South 275 316 7,500 -780 Descending FlightAware
06:31AM -23.4020 -46.7360 142° Southeast 256 295 7,100 -1,020 Descending FlightAware
06:31AM -23.4250 -46.7140 139° Southeast 242 278 6,600 -1,260 Descending FlightAware
06:32AM -23.4470 -46.6910 136° Southeast 232 267 6,000 -1,200 Descending FlightAware
06:32AM -23.4600 -46.6630 117° Southeast 218 251 5,500 -1,080 Descending FlightAware
06:33AM -23.4710 -46.6370 115° Southeast 208 239 5,000 -1,200 Descending FlightAware
06:33AM -23.4740 -46.6230 103° East 199 229 4,700 -960 Descending FlightAware
06:34AM -23.4680 -46.5940 77° East 176 203 4,300 -900 Descending FlightAware
06:34AM -23.4620 -46.5720 73° East 153 176 3,800 -960 Descending FlightAware
06:34AM -23.4570 -46.5540 73° East 148 170 3,500 -780 Descending FlightAware
06:35AM -23.4510 -46.5310 74° East 150 173 3,100 -720 Descending FlightAware
06:36AM -23.4450 -46.5090 73° East 150 173 2,700 -600 Descending FlightAware
06:36AM -23.4410 -46.4940 74° East 150 173 2,500 -540 Descending FlightAware
06:36AM -23.4340 -46.4700 72° East 72 83 -4,860 Descending FlightAware
06:37AM -23.4320 -46.4620 75° East 66 76  Level FlightAware